Latest Weather Observations for Albury

IDN60801

Issued at 8:53 am EDT Tuesday 27 October 2020 (issued every 10 minutes, with the page automatically refreshed every 10 minutes)

About weather observations | Map of weather stations | Latest weather observations for NSW | Other Formats
Station Details ID: 072160 Name: ALBURY AIRPORT AWS Lat: -36.07 Lon: 146.95 Height: 163.5 m
Data from the previous 72 hours. | See also: Recent months at Albury
Date/Time
EDT
Temp
°C
App
Temp
°C
Dew
Point
°C
Rel
Hum
%
Delta-T
°C
Wind Press
QNH
hPa
Press
MSL
hPa
Rain since
9am
mm
Dir  Spd
km/h
Gust
km/h
Spd
kts
Gust
kts
27/08:30am 14.4 10.0 6.5 59 3.8 SE 19 26 10 14 1021.5 1021.4 0.0
27/08:00am 14.0 9.6 6.4 60 3.7 SE 19 26 10 14 1021.3 1021.2 0.0
27/07:30am 12.9 8.6 5.3 60 3.6 SE 17 24 9 13 1021.1 1021.0 0.0
27/07:00am 12.6 9.1 5.3 61 3.4 SE 13 19 7 10 1021.1 1021.0 0.0
27/06:30am 12.4 8.4 5.1 61 3.4 SE 15 19 8 10 1020.8 1020.7 0.0
27/06:00am 12.4 8.9 5.3 62 3.3 SE 13 17 7 9 1020.8 1020.7 0.0
27/05:30am 12.5 8.6 5.4 62 3.3 SE 15 22 8 12 1020.5 1020.4 0.0
27/05:00am 12.4 8.9 5.6 63 3.2 SE 13 17 7 9 1020.5 1020.4 0.0
27/04:30am 12.6 9.0 5.1 60 3.5 SE 13 19 7 10 1020.4 1020.3 0.0
27/04:00am 12.8 8.9 5.5 61 3.4 SE 15 22 8 12 1020.4 1020.3 0.0
27/03:30am 12.7 9.2 5.6 62 3.3 SE 13 17 7 9 1020.5 1020.4 0.0
27/03:00am 12.9 9.1 5.8 62 3.4 SE 15 22 8 12 1020.5 1020.4 0.0
27/02:30am 13.0 8.8 5.7 61 3.5 SE 17 22 9 12 1020.5 1020.4 0.0
27/02:00am 13.0 9.2 5.9 62 3.4 SE 15 20 8 11 1020.6 1020.5 0.0
27/01:30am 13.1 9.4 6.2 63 3.3 SE 15 22 8 12 1020.8 1020.7 0.0
27/01:00am 13.0 9.3 6.1 63 3.3 SE 15 24 8 13 1021.0 1020.9 0.0
27/12:30am 13.3 8.8 5.9 61 3.5 SE 19 30 10 16 1021.0 1020.9 0.0
27/12:00am 13.5 8.4 6.1 61 3.5 SE 22 28 12 15 1021.1 1021.0 0.0
 
Date/Time
EDT
Temp
°C
App
Temp
°C
Dew
Point
°C
Rel
Hum
%
Delta-T
°C
Wind Press
QNH
hPa
Press
MSL
hPa
Rain since
9am
mm
Dir  Spd
km/h
Gust
km/h
Spd
kts
Gust
kts
26/11:30pm 13.4 9.3 6.3 62 3.4 SE 17 24 9 13 1021.0 1020.9 0.0
26/11:00pm 13.4 9.0 6.7 64 3.2 SSE 19 26 10 14 1021.1 1021.0 0.0
26/10:30pm 13.5 9.1 6.6 63 3.3 SSE 19 28 10 15 1021.1 1021.0 0.0
26/10:00pm 13.8 9.4 6.7 62 3.4 SE 19 28 10 15 1021.1 1021.0 0.0
26/09:30pm 14.1 9.2 6.7 61 3.6 SSE 22 32 12 17 1021.0 1020.9 0.0
26/09:00pm 14.4 10.4 6.7 60 3.8 SE 17 26 9 14 1020.9 1020.8 0.0
26/08:30pm 14.6 10.7 6.9 60 3.8 SE 17 22 9 12 1020.7 1020.6 0.0
26/08:00pm 14.8 11.5 6.6 58 4.0 SSE 13 20 7 11 1020.5 1020.4 0.0
26/07:30pm 15.3 10.7 6.3 55 4.4 SE 20 28 11 15 1020.2 1020.1 0.0
26/07:00pm 15.6 11.5 6.3 54 4.5 SSE 17 22 9 12 1019.9 1019.8 0.0
26/06:30pm 16.0 12.5 7.2 56 4.4 SSE 15 22 8 12 1019.6 1019.5 0.0
26/06:00pm 15.9 13.1 7.1 56 4.4 S 11 15 6 8 1019.5 1019.4 0.0
26/05:30pm 16.1 12.1 6.5 53 4.7 SE 17 22 9 12 1019.6 1019.5 0.0
26/05:00pm 16.6 12.9 6.1 50 5.1 SSE 15 22 8 12 1019.4 1019.3 0.0
26/04:30pm 16.8 13.5 6.3 50 5.2 SSE 13 17 7 9 1019.4 1019.3 0.0
26/04:00pm 17.1 13.8 6.6 50 5.2 SE 13 17 7 9 1019.4 1019.3 0.0
26/03:30pm 17.3 13.5 5.9 47 5.6 SE 15 22 8 12 1019.5 1019.4 0.0
26/03:00pm 17.8 14.0 6.0 46 5.8 SE 15 22 8 12 1019.6 1019.5 0.0
26/02:30pm 17.5 12.6 5.1 44 6.0 SE 20 32 11 17 1019.6 1019.5 0.0
26/02:00pm 17.2 12.6 5.8 47 5.6 SSE 19 24 10 13 1019.6 1019.5 0.0
26/01:30pm 17.3 12.6 5.9 47 5.6 SSE 20 30 11 16 1019.6 1019.5 0.0
26/01:00pm 17.1 12.1 6.3 49 5.3 SE 22 30 12 16 1019.7 1019.6 0.0
26/12:30pm 16.8 11.3 6.0 49 5.3 SE 24 32 13 17 1020.1 1020.0 0.0
26/12:00pm 16.3 10.7 5.3 48 5.3 SE 24 33 13 18 1020.3 1020.2 0.0
26/11:30am 16.7 11.6 5.9 49 5.3 SE 22 30 12 16 1020.7 1020.6 0.0
26/11:00am 16.0 10.4 5.3 49 5.1 SSE 24 35 13 19 1021.1 1021.0 0.0
26/10:30am 15.5 9.8 5.1 50 5.0 SE 24 33 13 18 1021.1 1021.0 0.0
26/10:00am 15.6 10.6 4.6 48 5.2 ESE 20 32 11 17 1021.0 1020.9 0.0
26/09:30am 14.4 9.6 4.4 51 4.7 SE 19 32 10 17 1020.6 1020.5 0.0
26/09:00am 13.8 9.0 4.9 55 4.2 SE 19 33 10 18 1020.4 1020.3 0.0
26/08:30am 13.6 8.4 5.3 57 3.9 SE 22 33 12 18 1020.0 1019.9 0.0
26/08:00am 12.8 8.0 4.5 57 3.8 SE 19 30 10 16 1019.8 1019.7 0.0
26/07:30am 12.4 6.6 4.4 58 3.7 SE 24 41 13 22 1019.4 1019.3 0.0
26/07:00am 12.4 5.8 4.1 57 3.8 SE 28 39 15 21 1018.9 1018.7 0.0
26/06:30am 12.0 5.8 4.5 60 3.4 SE 26 37 14 20 1018.5 1018.3 0.0
26/06:00am 12.1 5.1 4.3 59 3.5 SE 30 44 16 24 1018.3 1018.1 0.0
26/05:42am 12.2 5.6 4.4 59 3.6 SE 28 50 15 27 1018.0 1017.8 0.0
26/05:30am 12.4 5.5 4.6 59 3.6 SE 30 44 16 24 1018.0 1017.8 0.0
26/05:13am 12.3 5.8 4.8 60 3.5 SE 28 46 15 25 1017.9 1017.7 0.0
26/05:00am 12.4 5.1 4.6 59 3.6 SE 32 48 17 26 1017.8 1017.6 0.0
26/04:43am 12.4 5.9 4.6 59 3.6 SE 28 50 15 27 1017.8 1017.6 0.0
26/04:30am 12.1 6.0 4.8 61 3.4 SE 26 44 14 24 1017.7 1017.5 0.0
26/04:22am 12.4 5.9 4.9 60 3.5 SE 28 46 15 25 1017.7 1017.5 0.0
26/04:00am 12.5 6.8 5.0 60 3.5 SE 24 43 13 23 1017.8 1017.6 0.0
26/03:30am 12.6 7.3 5.1 60 3.5 SE 22 33 12 18 1017.9 1017.7 0.0
26/03:00am 12.7 7.0 4.9 59 3.6 SE 24 35 13 19 1018.0 1017.8 0.0
26/02:30am 12.7 7.0 5.1 60 3.5 SE 24 33 13 18 1018.0 1017.8 0.0
26/02:00am 12.7 7.4 5.1 60 3.5 SE 22 33 12 18 1018.2 1018.0 0.0
26/01:30am 12.7 8.1 5.4 61 3.4 SE 19 32 10 17 1018.4 1018.2 0.0
26/01:00am 12.9 8.1 5.6 61 3.4 SE 20 35 11 19 1018.4 1018.2 0.0
26/12:30am 13.1 8.4 6.0 62 3.4 SSE 20 30 11 16 1018.4 1018.2 0.0
26/12:00am 13.2 8.5 5.9 61 3.5 SE 20 30 11 16 1018.3 1018.1 0.0
 
Date/Time
EDT
Temp
°C
App
Temp
°C
Dew
Point
°C
Rel
Hum
%
Delta-T
°C
Wind Press
QNH
hPa
Press
MSL
hPa
Rain since
9am
mm
Dir  Spd
km/h
Gust
km/h
Spd
kts
Gust
kts
25/11:30pm 13.3 8.5 5.7 60 3.6 SSE 20 32 11 17 1018.2 1018.0 0.0
25/11:00pm 13.6 9.5 6.2 61 3.6 SE 17 26 9 14 1018.2 1018.0 0.0
25/10:30pm 13.5 9.1 6.6 63 3.3 SE 19 32 10 17 1018.2 1018.0 0.0
25/10:00pm 13.6 9.2 7.2 65 3.1 SE 20 30 11 16 1018.1 1017.9 0.0
25/09:30pm 13.8 9.6 7.3 65 3.2 SE 19 26 10 14 1018.0 1017.8 0.0
25/09:00pm 13.9 9.6 7.2 64 3.3 SE 19 28 10 15 1017.6 1017.4 0.0
25/08:30pm 14.1 9.7 7.6 65 3.2 SE 20 32 11 17 1017.3 1017.1 0.0
25/08:00pm 14.4 10.1 7.2 62 3.6 SE 19 26 10 14 1016.9 1016.7 0.0
25/07:30pm 14.6 9.9 7.6 63 3.5 SSE 22 30 12 16 1016.4 1016.2 0.0
25/07:00pm 15.9 11.6 7.9 59 4.0 SSE 20 28 11 15 1015.6 1015.5 0.0
25/06:30pm 16.5 12.1 7.2 54 4.7 SE 20 30 11 16 1015.2 1015.1 0.0
25/06:00pm 17.1 12.8 7.2 52 5.0 SE 19 28 10 15 1014.9 1014.8 0.0
25/05:30pm 17.7 13.5 7.4 51 5.2 SE 19 26 10 14 1014.6 1014.5 0.0
25/05:00pm 18.2 12.8 7.9 51 5.3 SE 26 35 14 19 1014.2 1014.1 0.0
25/04:30pm 17.9 13.3 6.7 48 5.6 SE 20 30 11 16 1013.9 1013.8 0.0
25/04:00pm 18.9 13.9 8.0 49 5.6 ESE 24 35 13 19 1013.8 1013.7 0.0
25/03:30pm 18.8 14.4 7.3 47 5.9 ESE 20 28 11 15 1013.8 1013.7 0.0
25/03:00pm 18.7 13.8 6.9 46 6.0 ESE 22 30 12 16 1014.0 1013.9 0.0
25/02:30pm 19.8 15.9 8.8 49 5.8 ESE 19 30 10 16 1014.2 1014.1 0.0
25/02:00pm 19.0 14.8 8.1 49 5.7 SE 20 30 11 16 1014.3 1014.2 0.0
25/01:30pm 17.9 13.4 7.0 49 5.5 SSE 20 30 11 16 1014.4 1014.3 0.0
25/01:00pm 17.5 13.3 8.1 54 4.8 SE 20 33 11 18 1014.4 1014.3 0.0
25/12:30pm 16.5 11.9 6.3 51 5.0 SSE 20 32 11 17 1014.7 1014.6 0.0
25/12:00pm 15.1 9.9 5.3 52 4.7 SE 22 32 12 17 1014.9 1014.8 0.0
25/11:30am 15.2 10.2 6.5 56 4.3 SE 22 32 12 17 1015.0 1014.9 0.0
25/11:00am 14.3 9.1 5.7 56 4.1 ESE 22 33 12 18 1014.9 1014.8 0.0
25/10:30am 14.6 9.8 5.7 55 4.3 SE 20 30 11 16 1014.8 1014.7 0.0
25/10:00am 13.8 8.6 5.7 58 3.9 SE 22 32 12 17 1014.7 1014.6 0.0
25/09:30am 13.2 7.4 4.6 56 4.0 SE 24 33 13 18 1014.4 1014.3 0.0
25/09:00am 12.4 7.7 5.3 62 3.3 SSE 19 30 10 16 1014.2 1014.1 9.2
25/08:30am 11.3 6.1 3.6 59 3.4 SSE 20 30 11 16 1013.8 1013.7 9.2
25/08:00am 10.7 5.1 3.3 60 3.3 SSE 22 37 12 20 1013.5 1013.3 9.2
25/07:30am 9.7 5.5 3.7 66 2.6 SSE 15 20 8 11 1013.2 1013.0 9.2
25/07:00am 8.2 4.2 3.1 70 2.2 S 13 20 7 11 1012.8 1012.6 9.2
25/06:30am 8.2 3.8 2.7 68 2.3 SSE 15 22 8 12 1012.3 1012.1 9.2
25/06:00am 7.9 3.1 2.4 68 2.3 S 17 26 9 14 1011.8 1011.6 9.2
25/05:30am 8.5 3.7 2.5 66 2.5 SSE 17 28 9 15 1011.4 1011.2 9.2
25/05:00am 8.8 3.6 2.2 63 2.8 SSE 19 26 10 14 1010.9 1010.7 9.2
25/04:30am 8.6 4.0 3.6 71 2.2 SSE 17 24 9 13 1010.5 1010.3 9.2
25/04:00am 8.5 5.1 6.0 84 1.2 S 13 20 7 11 1010.2 1010.0 9.2
25/03:30am 8.4 6.0 7.2 92 0.6 S 9 13 5 7 1009.7 1009.5 9.2
25/03:00am 8.4 5.7 7.5 94 0.4 S 11 13 6 7 1009.2 1009.1 9.2
25/02:30am 8.8 6.9 7.4 91 0.7 SSE 7 9 4 5 1009.1 1009.0 9.2
25/02:00am 9.6 7.8 7.2 85 1.1 S 6 7 3 4 1009.4 1009.2 9.2
25/01:30am 10.3 8.4 7.7 84 1.3 S 7 9 4 5 1009.2 1009.1 9.2
25/01:00am 10.5 8.7 8.1 85 1.2 S 7 9 4 5 1009.4 1009.2 9.2
25/12:30am 10.8 9.0 8.0 83 1.4 SSW 7 7 4 4 1009.4 1009.2 9.2
25/12:00am 10.6 8.4 7.8 83 1.4 SSW 9 11 5 6 1009.0 1008.9 9.2
 
Date/Time
EDT
Temp
°C
App
Temp
°C
Dew
Point
°C
Rel
Hum
%
Delta-T
°C
Wind Press
QNH
hPa
Press
MSL
hPa
Rain since
9am
mm
Dir  Spd
km/h
Gust
km/h
Spd
kts
Gust
kts
24/11:30pm 11.2 9.1 8.2 82 1.5 S 9 13 5 7 1008.9 1008.8 9.2
24/11:00pm 11.5 9.0 8.2 80 1.6 S 11 15 6 8 1008.6 1008.5 9.2
24/10:30pm 12.8 10.0 8.7 76 2.1 SE 13 17 7 9 1008.3 1008.1 9.2
24/10:00pm 13.5 10.5 9.4 76 2.1 SE 15 20 8 11 1008.1 1007.9 9.2
24/09:30pm 13.8 11.8 10.0 78 2.0 SE 11 17 6 9 1007.5 1007.3 9.2
24/09:00pm 14.3 10.9 10.5 78 2.0 SE 19 26 10 14 1006.9 1006.7 9.2
24/08:30pm 14.8 12.5 11.6 81 1.7 SSE 15 22 8 12 1006.0 1005.8 9.2
24/08:00pm 15.1 13.0 12.4 84 1.5 SSE 15 20 8 11 1005.5 1005.3 9.2
24/07:30pm 15.8 13.6 13.3 85 1.4 SSW 17 20 9 11 1005.3 1005.1 9.2
24/07:00pm 15.8 12.7 13.3 85 1.4 W 22 32 12 17 1004.3 1004.1 9.2
24/06:30pm 16.3 12.1 13.4 83 1.6 W 28 39 15 21 1003.5 1003.3 9.2
24/06:00pm 17.6 14.0 14.3 81 1.9 WSW 26 35 14 19 1002.8 1002.6 9.2
24/05:30pm 18.9 16.3 15.8 82 1.8 WSW 24 35 13 19 1002.1 1001.9 9.2
24/05:12pm 18.5 15.8 15.7 84 1.7 W 24 35 13 19 1002.0 1001.8 9.2
24/05:00pm 19.0 17.1 16.6 86 1.5 WSW 22 30 12 16 1001.8 1001.6 9.2
24/04:42pm 19.3 17.5 16.9 86 1.5 W 22 32 12 17 1001.6 1001.4 9.2
24/04:30pm 19.3 17.1 16.9 86 1.5 W 24 32 13 17 1001.6 1001.4 9.2
24/04:00pm 19.2 20.7 19.0 99 0.1 NW 9 17 5 9 1001.6 1001.4 9.2
24/03:49pm 18.8 20.6 18.8 100 0.0 N 7 11 4 6 1001.6 1001.4 9.2
24/03:43pm 18.4 20.1 18.4 100 0.0 NNW 7 11 4 6 1001.6 1001.4 9.2
24/03:30pm 18.2 19.4 18.2 100 0.0 NW 9 17 5 9 1001.8 1001.6 9.2
24/03:22pm 18.2 19.0 18.2 100 0.0 NW 11 17 6 9 1001.9 1001.7 8.0
24/03:12pm 18.3 18.6 18.0 98 0.2 NW 13 20 7 11 1001.9 1001.7 6.8
24/03:10pm 18.5 18.8 18.0 97 0.3 NW 13 20 7 11 1002.0 1001.8 6.0
24/03:04pm 19.2 20.1 18.5 96 0.4 NNW 11 17 6 9 1002.0 1001.8 4.2
24/03:00pm 19.3 20.2 18.3 94 0.6 N 11 15 6 8 1002.0 1001.8 4.2
24/02:37pm 19.3 20.2 19.3 100 0.0 NE 13 17 7 9 1002.0 1001.8 4.2
24/02:30pm 19.1 19.8 18.9 99 0.1 NE 13 17 7 9 1002.1 1001.9 4.2
24/02:21pm 19.3 19.9 18.5 95 0.5 NE 13 17 7 9 1002.2 1002.0 3.4
24/02:00pm 20.6 21.8 18.2 86 1.5 NW 9 19 5 10 1002.3 1002.1 3.0
24/01:43pm 20.1 21.2 18.8 92 0.8 NNE 11 15 6 8 1002.5 1002.3 3.0
24/01:30pm 19.7 21.1 18.7 94 0.6 NNW 9 13 5 7 1002.4 1002.2 3.0
24/01:00pm 18.7 20.3 18.2 97 0.3 W 7 11 4 6 1002.5 1002.3 3.0
24/12:33pm 18.4 20.2 18.4 100 0.0 SE 6 11 3 6 1002.0 1001.8 3.0
24/12:30pm 18.5 20.8 18.5 100 0.0 SE 4 11 2 6 1002.0 1001.8 3.0
24/12:00pm 18.3 18.8 18.3 100 0.0 WNW 13 20 7 11 1003.6 1003.4 2.8
24/11:30am 17.8 17.7 17.8 100 0.0 W 15 17 8 9 1003.4 1003.1 2.6
24/11:00am 18.3 18.8 18.3 100 0.0 WSW 13 19 7 10 1003.3 1003.0 1.6
24/10:30am 18.6 20.3 18.6 100 0.0 WSW 7 9 4 5 1002.9 1002.7 1.6
24/10:14am 18.5 20.2 18.5 100 0.0 WNW 7 11 4 6 1002.9 1002.7 1.6
24/10:10am 18.4 19.7 18.4 100 0.0 WNW 9 11 5 6 1003.2 1002.9 1.6
24/10:06am 18.2 19.4 18.2 100 0.0 WNW 9 11 5 6 1003.3 1003.0 1.6
24/10:00am 18.0 19.5 18.0 100 0.0 NW 7 11 4 6 1003.4 1003.1 1.6
24/09:50am 17.9 19.3 17.9 100 0.0 NW 7 11 4 6 1003.6 1003.4 1.2
24/09:30am 17.9 19.5 17.9 100 0.0 NW 6 7 3 4 1003.7 1003.5 0.2
24/09:00am 17.7 19.2 17.7 100 0.0 WNW 6 9 3 5 1003.6 1003.4 12.6

Other formats

Comma delimited format used in spreadsheet applications
http://www.bom.gov.au/fwo/IDN60801/IDN60801.95896.axf

JavaScript Object Notation format (JSON) in row-major order
http://www.bom.gov.au/fwo/IDN60801/IDN60801.95896.json

Data quality

Most of these data are generated automatically and are frequently updated. Quality checks on data are not normally performed. It is possible for incorrect values to appear. Refer to information at About Latest Weather Observations and please check the disclaimer before using these data.